sensor_id;sensor_type;location;lat;lon;timestamp;pressure;altitude;pressure_sealevel;temperature;humidity
55590;BME280;41452;42.780;23.116;2023-04-22T00:01:25;94060.53;;;6.22;96.51
55590;BME280;41452;42.780;23.116;2023-04-22T00:03:51;94039.34;;;6.05;96.56
55590;BME280;41452;42.780;23.116;2023-04-22T00:06:17;94049.81;;;5.98;97.63
55590;BME280;41452;42.780;23.116;2023-04-22T00:08:43;94001.81;;;5.67;97.09
55590;BME280;41452;42.780;23.116;2023-04-22T00:11:08;94018.81;;;5.77;97.11
55590;BME280;41452;42.780;23.116;2023-04-22T00:13:34;94049.38;;;6.08;96.92
55590;BME280;41452;42.780;23.116;2023-04-22T00:16:02;94053.34;;;6.11;96.29
55590;BME280;41452;42.780;23.116;2023-04-22T00:18:27;93998.38;;;5.74;96.13
55590;BME280;41452;42.780;23.116;2023-04-22T00:20:53;94055.84;;;5.92;96.94
55590;BME280;41452;42.780;23.116;2023-04-22T00:23:18;94055.00;;;6.05;96.35
55590;BME280;41452;42.780;23.116;2023-04-22T00:25:44;94057.78;;;6.10;95.54
55590;BME280;41452;42.780;23.116;2023-04-22T00:28:09;94051.38;;;6.06;95.64
55590;BME280;41452;42.780;23.116;2023-04-22T00:30:35;94059.81;;;6.01;95.21
55590;BME280;41452;42.780;23.116;2023-04-22T00:33:01;94062.59;;;6.06;95.52
55590;BME280;41452;42.780;23.116;2023-04-22T00:35:26;93995.06;;;5.60;95.19
55590;BME280;41452;42.780;23.116;2023-04-22T00:37:52;94002.41;;;5.69;95.08
55590;BME280;41452;42.780;23.116;2023-04-22T00:40:17;94064.25;;;5.94;94.56
55590;BME280;41452;42.780;23.116;2023-04-22T00:42:43;94060.63;;;5.95;95.08
55590;BME280;41452;42.780;23.116;2023-04-22T00:45:10;94060.41;;;6.03;94.32
55590;BME280;41452;42.780;23.116;2023-04-22T00:47:36;94036.84;;;5.78;93.78
55590;BME280;41452;42.780;23.116;2023-04-22T00:50:02;93972.34;;;5.28;93.65
55590;BME280;41452;42.780;23.116;2023-04-22T00:52:27;94063.28;;;5.82;93.82
55590;BME280;41452;42.780;23.116;2023-04-22T00:54:53;94064.53;;;5.72;94.48
55590;BME280;41452;42.780;23.116;2023-04-22T00:57:19;94069.53;;;5.74;95.03
55590;BME280;41452;42.780;23.116;2023-04-22T00:59:44;94058.41;;;5.47;95.56
55590;BME280;41452;42.780;23.116;2023-04-22T01:02:11;94054.97;;;5.60;95.31
55590;BME280;41452;42.780;23.116;2023-04-22T01:04:37;94061.56;;;5.62;94.45
55590;BME280;41452;42.780;23.116;2023-04-22T01:07:02;94061.16;;;5.65;94.11
55590;BME280;41452;42.780;23.116;2023-04-22T01:09:29;94070.81;;;5.51;94.16
55590;BME280;41452;42.780;23.116;2023-04-22T01:11:55;94059.22;;;5.41;94.05
55590;BME280;41452;42.780;23.116;2023-04-22T01:14:20;94070.41;;;5.55;93.76
55590;BME280;41452;42.780;23.116;2023-04-22T01:16:46;94067.59;;;5.56;93.05
55590;BME280;41452;42.780;23.116;2023-04-22T01:19:12;94038.22;;;5.29;92.71
55590;BME280;41452;42.780;23.116;2023-04-22T01:21:38;94072.28;;;5.27;93.93
55590;BME280;41452;42.780;23.116;2023-04-22T01:24:05;94070.31;;;5.16;94.87
55590;BME280;41452;42.780;23.116;2023-04-22T01:26:31;94066.28;;;5.27;94.64
55590;BME280;41452;42.780;23.116;2023-04-22T01:28:56;94060.13;;;5.01;95.32
55590;BME280;41452;42.780;23.116;2023-04-22T01:31:22;94068.13;;;5.00;95.35
55590;BME280;41452;42.780;23.116;2023-04-22T01:33:47;94070.13;;;4.98;95.88
55590;BME280;41452;42.780;23.116;2023-04-22T01:36:13;94062.91;;;5.06;95.31
55590;BME280;41452;42.780;23.116;2023-04-22T01:38:39;94062.91;;;5.06;95.33
55590;BME280;41452;42.780;23.116;2023-04-22T01:41:05;94067.28;;;5.19;94.86
55590;BME280;41452;42.780;23.116;2023-04-22T01:43:31;94063.72;;;5.13;94.85
55590;BME280;41452;42.780;23.116;2023-04-22T01:45:57;94052.09;;;5.09;94.89
55590;BME280;41452;42.780;23.116;2023-04-22T01:48:24;94053.25;;;5.20;94.82
55590;BME280;41452;42.780;23.116;2023-04-22T01:50:49;94060.88;;;5.22;94.66
55590;BME280;41452;42.780;23.116;2023-04-22T01:53:15;94057.47;;;5.14;94.81
55590;BME280;41452;42.780;23.116;2023-04-22T01:55:40;94057.28;;;5.16;94.93
55590;BME280;41452;42.780;23.116;2023-04-22T01:58:07;94046.47;;;5.12;94.99
55590;BME280;41452;42.780;23.116;2023-04-22T02:00:32;94000.28;;;4.81;95.39
55590;BME280;41452;42.780;23.116;2023-04-22T02:02:58;94025.66;;;5.06;95.45
55590;BME280;41452;42.780;23.116;2023-04-22T02:05:23;94046.47;;;5.26;94.84
55590;BME280;41452;42.780;23.116;2023-04-22T02:07:52;94047.84;;;5.22;95.11
55590;BME280;41452;42.780;23.116;2023-04-22T02:10:18;94057.50;;;5.08;95.58
55590;BME280;41452;42.780;23.116;2023-04-22T02:12:44;94053.31;;;5.07;95.47
55590;BME280;41452;42.780;23.116;2023-04-22T02:15:09;94058.31;;;5.02;95.81
55590;BME280;41452;42.780;23.116;2023-04-22T02:17:35;93977.72;;;4.55;96.18
55590;BME280;41452;42.780;23.116;2023-04-22T02:20:01;94049.28;;;5.11;96.01
55590;BME280;41452;42.780;23.116;2023-04-22T02:22:27;94047.84;;;5.15;95.91
55590;BME280;41452;42.780;23.116;2023-04-22T02:24:53;94050.25;;;5.17;95.83
55590;BME280;41452;42.780;23.116;2023-04-22T02:27:20;94049.69;;;5.08;95.72
55590;BME280;41452;42.780;23.116;2023-04-22T02:29:45;93925.94;;;4.20;95.72
55590;BME280;41452;42.780;23.116;2023-04-22T02:32:11;94054.69;;;5.03;95.84
55590;BME280;41452;42.780;23.116;2023-04-22T02:34:37;94055.13;;;5.06;95.76
55590;BME280;41452;42.780;23.116;2023-04-22T02:37:02;94058.13;;;5.03;95.59
55590;BME280;41452;42.780;23.116;2023-04-22T02:39:28;94057.72;;;5.00;95.76
55590;BME280;41452;42.780;23.116;2023-04-22T02:41:53;94052.13;;;4.96;96.19
55590;BME280;41452;42.780;23.116;2023-04-22T02:44:19;93975.31;;;4.40;96.36
55590;BME280;41452;42.780;23.116;2023-04-22T02:46:44;94051.31;;;4.82;96.78
55590;BME280;41452;42.780;23.116;2023-04-22T02:49:09;94058.72;;;4.72;97.49
55590;BME280;41452;42.780;23.116;2023-04-22T02:51:37;94057.94;;;4.71;97.86
55590;BME280;41452;42.780;23.116;2023-04-22T02:54:02;94063.16;;;4.78;97.81
55590;BME280;41452;42.780;23.116;2023-04-22T02:56:27;94059.53;;;4.86;97.36
55590;BME280;41452;42.780;23.116;2023-04-22T02:58:53;94062.91;;;4.80;97.66
55590;BME280;41452;42.780;23.116;2023-04-22T03:01:18;94062.91;;;4.86;97.55
55590;BME280;41452;42.780;23.116;2023-04-22T03:03:44;94062.53;;;4.76;98.15
55590;BME280;41452;42.780;23.116;2023-04-22T03:06:09;94054.91;;;4.81;98.01
55590;BME280;41452;42.780;23.116;2023-04-22T03:08:35;94066.50;;;4.92;97.82
55590;BME280;41452;42.780;23.116;2023-04-22T03:11:00;94060.91;;;4.95;97.60
55590;BME280;41452;42.780;23.116;2023-04-22T03:13:25;94049.31;;;4.91;97.42
55590;BME280;41452;42.780;23.116;2023-04-22T03:15:51;94060.53;;;4.98;97.30
55590;BME280;41452;42.780;23.116;2023-04-22T03:18:16;94043.72;;;4.81;97.53
55590;BME280;41452;42.780;23.116;2023-04-22T03:20:41;94064.31;;;4.95;97.97
55590;BME280;41452;42.780;23.116;2023-04-22T03:23:07;94052.13;;;4.76;98.28
55590;BME280;41452;42.780;23.116;2023-04-22T03:25:34;94069.75;;;4.87;99.37
55590;BME280;41452;42.780;23.116;2023-04-22T03:27:59;94075.94;;;4.86;99.87
55590;BME280;41452;42.780;23.116;2023-04-22T03:30:24;94071.16;;;4.83;100.00
55590;BME280;41452;42.780;23.116;2023-04-22T03:32:50;94072.34;;;4.94;100.00
55590;BME280;41452;42.780;23.116;2023-04-22T03:35:18;94080.50;;;5.04;99.85
55590;BME280;41452;42.780;23.116;2023-04-22T03:37:43;94079.13;;;5.08;99.61
55590;BME280;41452;42.780;23.116;2023-04-22T03:40:09;94076.13;;;5.05;100.00
55590;BME280;41452;42.780;23.116;2023-04-22T03:42:35;94080.91;;;5.08;100.00
55590;BME280;41452;42.780;23.116;2023-04-22T03:45:00;94089.75;;;5.07;100.00
55590;BME280;41452;42.780;23.116;2023-04-22T03:47:25;94088.75;;;5.01;100.00
55590;BME280;41452;42.780;23.116;2023-04-22T03:49:51;94090.16;;;4.77;100.00
55590;BME280;41452;42.780;23.116;2023-04-22T03:52:16;94087.56;;;4.90;100.00
55590;BME280;41452;42.780;23.116;2023-04-22T03:54:41;94093.94;;;4.88;100.00
55590;BME280;41452;42.780;23.116;2023-04-22T03:57:07;94098.56;;;4.92;100.00
55590;BME280;41452;42.780;23.116;2023-04-22T03:59:32;94095.34;;;5.04;100.00
55590;BME280;41452;42.780;23.116;2023-04-22T04:01:57;94075.13;;;4.79;100.00
55590;BME280;41452;42.780;23.116;2023-04-22T04:04:23;94108.94;;;4.99;100.00
55590;BME280;41452;42.780;23.116;2023-04-22T04:06:48;94052.13;;;4.76;100.00
55590;BME280;41452;42.780;23.116;2023-04-22T04:09:14;94100.34;;;5.12;100.00
55590;BME280;41452;42.780;23.116;2023-04-22T04:11:39;94104.34;;;5.14;100.00
55590;BME280;41452;42.780;23.116;2023-04-22T04:14:05;94110.56;;;5.07;100.00
55590;BME280;41452;42.780;23.116;2023-04-22T04:16:30;94108.16;;;5.05;100.00
55590;BME280;41452;42.780;23.116;2023-04-22T04:18:55;94108.75;;;5.01;100.00
55590;BME280;41452;42.780;23.116;2023-04-22T04:21:21;94091.34;;;4.94;100.00
55590;BME280;41452;42.780;23.116;2023-04-22T04:23:46;94119.75;;;5.16;100.00
55590;BME280;41452;42.780;23.116;2023-04-22T04:26:12;94116.97;;;5.18;100.00
55590;BME280;41452;42.780;23.116;2023-04-22T04:28:39;94113.94;;;5.27;100.00
55590;BME280;41452;42.780;23.116;2023-04-22T04:31:06;94120.34;;;5.31;100.00
55590;BME280;41452;42.780;23.116;2023-04-22T04:33:31;94122.38;;;5.29;100.00
55590;BME280;41452;42.780;23.116;2023-04-22T04:35:57;94126.94;;;5.27;100.00
55590;BME280;41452;42.780;23.116;2023-04-22T04:38:23;94121.75;;;5.34;100.00
55590;BME280;41452;42.780;23.116;2023-04-22T04:40:49;94122.13;;;5.38;100.00
55590;BME280;41452;42.780;23.116;2023-04-22T04:43:15;94126.34;;;5.32;100.00
55590;BME280;41452;42.780;23.116;2023-04-22T04:45:41;94093.94;;;5.08;100.00
55590;BME280;41452;42.780;23.116;2023-04-22T04:48:11;94135.16;;;5.38;100.00
55590;BME280;41452;42.780;23.116;2023-04-22T04:50:37;94133.97;;;5.33;100.00
55590;BME280;41452;42.780;23.116;2023-04-22T04:53:03;94135.56;;;5.34;100.00
55590;BME280;41452;42.780;23.116;2023-04-22T04:55:28;94117.31;;;5.34;100.00
55590;BME280;41452;42.780;23.116;2023-04-22T04:57:54;94145.53;;;5.58;100.00
55590;BME280;41452;42.780;23.116;2023-04-22T05:00:19;94123.72;;;5.45;100.00
55590;BME280;41452;42.780;23.116;2023-04-22T05:02:44;94140.31;;;5.64;100.00
55590;BME280;41452;42.780;23.116;2023-04-22T05:05:10;94069.31;;;5.17;100.00
55590;BME280;41452;42.780;23.116;2023-04-22T05:07:36;94151.31;;;5.80;100.00
55590;BME280;41452;42.780;23.116;2023-04-22T05:10:02;94145.44;;;6.04;100.00
55590;BME280;41452;42.780;23.116;2023-04-22T05:12:27;94129.72;;;6.18;100.00
55590;BME280;41452;42.780;23.116;2023-04-22T05:14:53;94112.41;;;6.30;100.00
55590;BME280;41452;42.780;23.116;2023-04-22T05:17:19;94147.00;;;6.57;100.00
55590;BME280;41452;42.780;23.116;2023-04-22T05:19:44;94140.63;;;6.78;100.00
55590;BME280;41452;42.780;23.116;2023-04-22T05:22:10;94140.13;;;6.95;100.00
55590;BME280;41452;42.780;23.116;2023-04-22T05:24:35;94148.69;;;7.02;100.00
55590;BME280;41452;42.780;23.116;2023-04-22T05:27:01;94144.16;;;7.16;100.00
55590;BME280;41452;42.780;23.116;2023-04-22T05:29:27;94146.78;;;7.41;100.00
55590;BME280;41452;42.780;23.116;2023-04-22T05:31:52;94153.47;;;7.55;100.00
55590;BME280;41452;42.780;23.116;2023-04-22T05:34:18;94127.97;;;7.51;100.00
55590;BME280;41452;42.780;23.116;2023-04-22T05:36:43;94146.63;;;7.54;100.00
55590;BME280;41452;42.780;23.116;2023-04-22T05:39:09;94150.38;;;7.84;100.00
55590;BME280;41452;42.780;23.116;2023-04-22T05:41:34;94150.94;;;8.04;100.00
55590;BME280;41452;42.780;23.116;2023-04-22T05:43:59;94151.44;;;8.13;100.00
55590;BME280;41452;42.780;23.116;2023-04-22T05:46:25;94143.03;;;8.11;100.00
55590;BME280;41452;42.780;23.116;2023-04-22T05:48:50;94138.06;;;8.21;100.00
55590;BME280;41452;42.780;23.116;2023-04-22T05:51:15;94151.88;;;8.47;100.00
55590;BME280;41452;42.780;23.116;2023-04-22T05:53:41;94143.72;;;8.67;100.00
55590;BME280;41452;42.780;23.116;2023-04-22T05:56:06;94156.88;;;8.79;100.00
55590;BME280;41452;42.780;23.116;2023-04-22T05:58:32;94147.78;;;8.81;100.00
55590;BME280;41452;42.780;23.116;2023-04-22T06:00:57;94147.44;;;8.89;100.00
55590;BME280;41452;42.780;23.116;2023-04-22T06:03:22;94097.56;;;8.72;100.00
55590;BME280;41452;42.780;23.116;2023-04-22T06:05:48;94094.81;;;8.79;100.00
55590;BME280;41452;42.780;23.116;2023-04-22T06:08:13;94152.19;;;9.23;100.00
55590;BME280;41452;42.780;23.116;2023-04-22T06:10:39;94151.88;;;9.31;100.00
55590;BME280;41452;42.780;23.116;2023-04-22T06:13:04;94154.34;;;9.38;100.00
55590;BME280;41452;42.780;23.116;2023-04-22T06:15:30;94152.88;;;9.54;100.00
55590;BME280;41452;42.780;23.116;2023-04-22T06:17:55;94148.31;;;9.61;100.00
55590;BME280;41452;42.780;23.116;2023-04-22T06:20:21;94158.59;;;9.74;100.00
55590;BME280;41452;42.780;23.116;2023-04-22T06:22:46;94149.94;;;9.62;100.00
55590;BME280;41452;42.780;23.116;2023-04-22T06:25:12;94158.69;;;9.67;100.00
55590;BME280;41452;42.780;23.116;2023-04-22T06:27:37;94155.97;;;9.62;100.00
55590;BME280;41452;42.780;23.116;2023-04-22T06:30:04;94139.09;;;9.70;100.00
55590;BME280;41452;42.780;23.116;2023-04-22T06:32:29;94160.09;;;9.70;100.00
55590;BME280;41452;42.780;23.116;2023-04-22T06:34:55;94155.16;;;9.85;100.00
55590;BME280;41452;42.780;23.116;2023-04-22T06:37:20;94153.66;;;10.01;100.00
55590;BME280;41452;42.780;23.116;2023-04-22T06:39:45;94155.69;;;10.11;100.00
55590;BME280;41452;42.780;23.116;2023-04-22T06:42:11;94149.59;;;10.22;100.00
55590;BME280;41452;42.780;23.116;2023-04-22T06:44:36;94154.50;;;10.31;99.09
55590;BME280;41452;42.780;23.116;2023-04-22T06:47:02;94152.50;;;10.50;100.00
55590;BME280;41452;42.780;23.116;2023-04-22T06:49:27;94156.38;;;10.59;97.44
55590;BME280;41452;42.780;23.116;2023-04-22T06:51:52;94155.28;;;10.72;98.33
55590;BME280;41452;42.780;23.116;2023-04-22T06:54:18;94158.72;;;10.72;98.71
55590;BME280;41452;42.780;23.116;2023-04-22T06:56:43;94165.84;;;10.60;96.56
55590;BME280;41452;42.780;23.116;2023-04-22T06:59:09;94161.44;;;10.77;97.88
55590;BME280;41452;42.780;23.116;2023-04-22T07:01:34;94165.34;;;10.75;98.23
55590;BME280;41452;42.780;23.116;2023-04-22T07:03:59;94164.06;;;10.49;99.76
55590;BME280;41452;42.780;23.116;2023-04-22T07:06:25;94175.44;;;10.66;97.04
55590;BME280;41452;42.780;23.116;2023-04-22T07:08:52;94164.16;;;10.99;98.89
55590;BME280;41452;42.780;23.116;2023-04-22T07:11:17;94157.97;;;11.06;93.87
55590;BME280;41452;42.780;23.116;2023-04-22T07:13:43;94168.50;;;11.22;94.53
55590;BME280;41452;42.780;23.116;2023-04-22T07:16:08;94157.22;;;11.39;95.59
55590;BME280;41452;42.780;23.116;2023-04-22T07:18:34;94168.19;;;11.36;91.41
55590;BME280;41452;42.780;23.116;2023-04-22T07:21:00;94126.94;;;11.19;90.69
55590;BME280;41452;42.780;23.116;2023-04-22T07:23:25;94162.28;;;11.46;89.26
55590;BME280;41452;42.780;23.116;2023-04-22T07:25:51;94164.38;;;11.60;91.17
55590;BME280;41452;42.780;23.116;2023-04-22T07:28:17;94167.72;;;11.73;92.70
55590;BME280;41452;42.780;23.116;2023-04-22T07:30:42;94132.38;;;11.69;88.88
55590;BME280;41452;42.780;23.116;2023-04-22T07:33:07;94167.22;;;11.93;84.68
55590;BME280;41452;42.780;23.116;2023-04-22T07:35:33;94141.53;;;12.00;84.22
55590;BME280;41452;42.780;23.116;2023-04-22T07:37:58;94164.13;;;12.18;84.55
55590;BME280;41452;42.780;23.116;2023-04-22T07:40:23;94168.91;;;12.21;86.93
55590;BME280;41452;42.780;23.116;2023-04-22T07:42:49;94172.69;;;12.08;83.93
55590;BME280;41452;42.780;23.116;2023-04-22T07:45:14;94176.84;;;11.87;83.12
55590;BME280;41452;42.780;23.116;2023-04-22T07:47:41;94171.50;;;11.99;83.92
55590;BME280;41452;42.780;23.116;2023-04-22T07:50:07;94165.59;;;12.09;84.77
55590;BME280;41452;42.780;23.116;2023-04-22T07:52:32;94166.38;;;12.09;85.47
55590;BME280;41452;42.780;23.116;2023-04-22T07:54:57;94164.34;;;12.16;84.14
55590;BME280;41452;42.780;23.116;2023-04-22T07:57:23;94154.94;;;12.21;83.24
55590;BME280;41452;42.780;23.116;2023-04-22T07:59:50;94168.47;;;12.51;83.06
55590;BME280;41452;42.780;23.116;2023-04-22T08:02:16;94173.84;;;12.62;82.67
55590;BME280;41452;42.780;23.116;2023-04-22T08:04:41;94168.00;;;12.82;84.97
55590;BME280;41452;42.780;23.116;2023-04-22T08:07:07;94169.50;;;13.00;82.36
55590;BME280;41452;42.780;23.116;2023-04-22T08:09:32;94152.22;;;13.14;82.81
55590;BME280;41452;42.780;23.116;2023-04-22T08:11:58;94156.56;;;13.25;81.24
55590;BME280;41452;42.780;23.116;2023-04-22T08:14:23;94153.94;;;13.30;79.20
55590;BME280;41452;42.780;23.116;2023-04-22T08:16:51;94158.41;;;12.98;77.25
55590;BME280;41452;42.780;23.116;2023-04-22T08:19:17;94151.19;;;13.15;77.85
55590;BME280;41452;42.780;23.116;2023-04-22T08:21:43;94144.84;;;13.16;76.89
55590;BME280;41452;42.780;23.116;2023-04-22T08:24:09;94147.41;;;13.33;73.41
55590;BME280;41452;42.780;23.116;2023-04-22T08:26:35;94141.53;;;13.26;73.47
55590;BME280;41452;42.780;23.116;2023-04-22T08:29:02;94141.88;;;13.35;76.81
55590;BME280;41452;42.780;23.116;2023-04-22T08:31:27;94137.53;;;13.50;73.16
55590;BME280;41452;42.780;23.116;2023-04-22T08:33:52;94137.88;;;13.64;72.42
55590;BME280;41452;42.780;23.116;2023-04-22T08:36:18;94141.91;;;13.77;71.55
55590;BME280;41452;42.780;23.116;2023-04-22T08:38:47;94134.31;;;13.86;70.34
55590;BME280;41452;42.780;23.116;2023-04-22T08:41:12;94137.00;;;13.91;67.79
55590;BME280;41452;42.780;23.116;2023-04-22T08:43:38;94129.06;;;13.96;70.84
55590;BME280;41452;42.780;23.116;2023-04-22T08:46:04;94129.34;;;14.00;69.01
55590;BME280;41452;42.780;23.116;2023-04-22T08:48:31;94127.88;;;14.19;69.62
55590;BME280;41452;42.780;23.116;2023-04-22T08:50:57;94111.66;;;13.95;67.56
55590;BME280;41452;42.780;23.116;2023-04-22T08:53:22;94126.03;;;14.20;63.42
55590;BME280;41452;42.780;23.116;2023-04-22T08:55:48;94118.19;;;14.40;65.49
55590;BME280;41452;42.780;23.116;2023-04-22T08:58:14;94121.13;;;14.49;64.45
55590;BME280;41452;42.780;23.116;2023-04-22T09:00:43;94127.75;;;14.52;66.07
55590;BME280;41452;42.780;23.116;2023-04-22T09:03:08;94127.72;;;14.47;67.60
55590;BME280;41452;42.780;23.116;2023-04-22T09:05:36;94110.34;;;14.61;64.61
55590;BME280;41452;42.780;23.116;2023-04-22T09:08:02;94112.50;;;14.90;65.46
55590;BME280;41452;42.780;23.116;2023-04-22T09:10:31;94116.22;;;14.99;65.71
55590;BME280;41452;42.780;23.116;2023-04-22T09:12:57;94109.56;;;14.76;64.83
55590;BME280;41452;42.780;23.116;2023-04-22T09:15:23;94108.28;;;14.94;67.08
55590;BME280;41452;42.780;23.116;2023-04-22T09:17:52;94112.53;;;14.95;60.05
55590;BME280;41452;42.780;23.116;2023-04-22T09:20:17;94105.91;;;15.08;62.39
55590;BME280;41452;42.780;23.116;2023-04-22T09:22:49;94105.13;;;15.07;61.80
55590;BME280;41452;42.780;23.116;2023-04-22T09:25:33;94087.94;;;15.10;60.72
55590;BME280;41452;42.780;23.116;2023-04-22T09:28:01;94102.47;;;15.33;62.19
55590;BME280;41452;42.780;23.116;2023-04-22T09:30:34;94105.69;;;15.25;62.52
55590;BME280;41452;42.780;23.116;2023-04-22T09:33:03;94105.13;;;15.07;61.71
55590;BME280;41452;42.780;23.116;2023-04-22T09:35:35;94104.09;;;15.03;62.14
55590;BME280;41452;42.780;23.116;2023-04-22T09:38:02;94097.72;;;15.14;62.08
55590;BME280;41452;42.780;23.116;2023-04-22T09:40:30;94096.66;;;15.26;60.90
55590;BME280;41452;42.780;23.116;2023-04-22T09:42:59;94096.41;;;15.48;62.68
55590;BME280;41452;42.780;23.116;2023-04-22T09:45:30;94037.16;;;15.08;59.30
55590;BME280;41452;42.780;23.116;2023-04-22T09:47:59;94101.91;;;15.67;62.25
55590;BME280;41452;42.780;23.116;2023-04-22T09:50:26;94107.72;;;15.74;62.53
55590;BME280;41452;42.780;23.116;2023-04-22T09:52:59;94102.50;;;15.23;64.17
55590;BME280;41452;42.780;23.116;2023-04-22T09:55:27;94091.06;;;14.60;65.75
55590;BME280;41452;42.780;23.116;2023-04-22T09:57:55;94106.09;;;14.60;65.42
55590;BME280;41452;42.780;23.116;2023-04-22T10:00:27;94105.19;;;13.71;65.22
55590;BME280;41452;42.780;23.116;2023-04-22T10:02:53;94107.91;;;13.81;66.13
55590;BME280;41452;42.780;23.116;2023-04-22T10:05:18;94097.41;;;13.96;67.57
55590;BME280;41452;42.780;23.116;2023-04-22T10:07:44;94098.59;;;14.26;65.72
55590;BME280;41452;42.780;23.116;2023-04-22T10:10:10;94091.31;;;14.59;64.38
55590;BME280;41452;42.780;23.116;2023-04-22T10:12:36;94076.53;;;14.63;64.99
55590;BME280;41452;42.780;23.116;2023-04-22T10:15:02;94080.28;;;14.93;64.42
55590;BME280;41452;42.780;23.116;2023-04-22T10:17:30;94081.31;;;14.92;65.83
55590;BME280;41452;42.780;23.116;2023-04-22T10:19:59;94082.13;;;15.18;65.01
55590;BME280;41452;42.780;23.116;2023-04-22T10:22:28;94086.88;;;15.11;60.85
55590;BME280;41452;42.780;23.116;2023-04-22T10:24:54;94077.88;;;14.96;62.12
55590;BME280;41452;42.780;23.116;2023-04-22T10:27:22;94075.50;;;15.00;62.07
55590;BME280;41452;42.780;23.116;2023-04-22T10:29:47;94068.63;;;15.04;63.06
55590;BME280;41452;42.780;23.116;2023-04-22T10:34:41;94069.16;;;15.32;59.82
55590;BME280;41452;42.780;23.116;2023-04-22T10:37:09;94071.28;;;14.78;60.16
55590;BME280;41452;42.780;23.116;2023-04-22T10:39:36;94056.72;;;15.27;60.02
55590;BME280;41452;42.780;23.116;2023-04-22T10:44:43;94064.13;;;15.46;60.80
55590;BME280;41452;42.780;23.116;2023-04-22T10:47:09;94053.22;;;15.68;59.41
55590;BME280;41452;42.780;23.116;2023-04-22T10:49:34;94058.50;;;15.73;57.56
55590;BME280;41452;42.780;23.116;2023-04-22T10:52:00;94053.97;;;15.89;58.15
55590;BME280;41452;42.780;23.116;2023-04-22T10:57:03;94059.75;;;16.06;55.07
55590;BME280;41452;42.780;23.116;2023-04-22T10:59:30;94037.31;;;15.73;54.40
55590;BME280;41452;42.780;23.116;2023-04-22T11:02:06;94064.28;;;16.01;54.66
55590;BME280;41452;42.780;23.116;2023-04-22T11:04:32;94064.53;;;16.04;55.24
55590;BME280;41452;42.780;23.116;2023-04-22T11:15:16;94072.28;;;15.59;59.43
55590;BME280;41452;42.780;23.116;2023-04-22T11:17:43;94076.53;;;15.50;59.04
55590;BME280;41452;42.780;23.116;2023-04-22T11:20:10;94087.38;;;15.54;59.56
55590;BME280;41452;42.780;23.116;2023-04-22T11:22:39;94080.53;;;15.43;60.57
55590;BME280;41452;42.780;23.116;2023-04-22T11:25:05;94078.94;;;15.31;61.25
55590;BME280;41452;42.780;23.116;2023-04-22T11:27:31;94085.28;;;15.30;60.58
55590;BME280;41452;42.780;23.116;2023-04-22T11:30:08;94095.09;;;15.14;59.78
55590;BME280;41452;42.780;23.116;2023-04-22T11:32:45;94086.59;;;15.28;61.56
55590;BME280;41452;42.780;23.116;2023-04-22T11:35:18;94097.19;;;15.48;61.55
55590;BME280;41452;42.780;23.116;2023-04-22T11:37:45;94110.41;;;15.53;61.53
55590;BME280;41452;42.780;23.116;2023-04-22T11:40:20;94087.13;;;15.55;60.87
55590;BME280;41452;42.780;23.116;2023-04-22T11:42:46;94100.38;;;15.35;56.55
55590;BME280;41452;42.780;23.116;2023-04-22T11:45:12;94109.38;;;15.34;58.47
55590;BME280;41452;42.780;23.116;2023-04-22T11:47:39;94115.16;;;15.20;62.68
55590;BME280;41452;42.780;23.116;2023-04-22T11:50:10;94119.66;;;15.10;60.09
55590;BME280;41452;42.780;23.116;2023-04-22T11:52:52;94113.84;;;15.08;57.74
55590;BME280;41452;42.780;23.116;2023-04-22T11:55:28;94118.09;;;15.09;60.41
55590;BME280;41452;42.780;23.116;2023-04-22T11:58:05;94114.13;;;15.06;62.59
55590;BME280;41452;42.780;23.116;2023-04-22T12:00:57;94107.25;;;15.20;57.94
55590;BME280;41452;42.780;23.116;2023-04-22T12:03:25;94109.91;;;15.10;58.84
55590;BME280;41452;42.780;23.116;2023-04-22T12:08:23;94095.34;;;15.13;56.61
55590;BME280;41452;42.780;23.116;2023-04-22T12:10:54;94118.09;;;15.24;57.33
55590;BME280;41452;42.780;23.116;2023-04-22T12:13:22;94116.25;;;15.09;59.43
55590;BME280;41452;42.780;23.116;2023-04-22T12:15:53;94111.72;;;15.10;57.24
55590;BME280;41452;42.780;23.116;2023-04-22T12:18:32;94115.16;;;14.95;57.31
55590;BME280;41452;42.780;23.116;2023-04-22T12:21:09;94117.03;;;15.30;58.20
55590;BME280;41452;42.780;23.116;2023-04-22T12:23:49;94061.22;;;15.01;57.28
55590;BME280;41452;42.780;23.116;2023-04-22T12:26:17;94108.84;;;15.27;57.64
55590;BME280;41452;42.780;23.116;2023-04-22T12:28:43;94103.53;;;15.16;58.03
55590;BME280;41452;42.780;23.116;2023-04-22T12:31:09;94100.09;;;15.11;56.75
55590;BME280;41452;42.780;23.116;2023-04-22T12:33:36;94105.91;;;15.08;56.41
55590;BME280;41452;42.780;23.116;2023-04-22T12:36:03;94096.94;;;15.14;57.00
55590;BME280;41452;42.780;23.116;2023-04-22T12:38:29;94082.13;;;15.23;59.64
55590;BME280;41452;42.780;23.116;2023-04-22T12:40:54;94097.97;;;15.44;57.95
55590;BME280;41452;42.780;23.116;2023-04-22T12:43:19;94101.94;;;15.56;53.81
55590;BME280;41452;42.780;23.116;2023-04-22T12:45:45;94112.53;;;15.26;54.40
55590;BME280;41452;42.780;23.116;2023-04-22T12:48:11;94098.25;;;15.37;53.68
55590;BME280;41452;42.780;23.116;2023-04-22T12:50:37;94101.97;;;15.15;55.64
55590;BME280;41452;42.780;23.116;2023-04-22T12:53:02;94096.69;;;15.10;54.23
55590;BME280;41452;42.780;23.116;2023-04-22T12:55:28;94094.81;;;15.11;55.85
55590;BME280;41452;42.780;23.116;2023-04-22T12:57:54;94042.13;;;14.53;57.43
55590;BME280;41452;42.780;23.116;2023-04-22T13:00:19;94099.28;;;14.85;57.01
55590;BME280;41452;42.780;23.116;2023-04-22T13:02:46;94099.72;;;14.56;58.36
55590;BME280;41452;42.780;23.116;2023-04-22T13:05:12;94095.56;;;14.70;58.93
55590;BME280;41452;42.780;23.116;2023-04-22T13:07:39;94093.41;;;14.57;57.18